Time;durP1;ratioP1;P1;durP2;ratioP2;P2;SDS_P1;SDS_P2;PMS_P1;PMS_P2;Temp;Humidity;BMP_temperature;BMP_pressure;BME280_temperature;BME280_humidity;BME280_pressure;Samples;Min_cycle;Max_cycle;Signal;HPM_P1;HPM_P2
2023/01/03 00:01:41;;;;;;;17.15;7.22;;;;;;;4.86;100.00;102409.66;5008714;28;20036;-66
2023/01/03 00:04:07;;;;;;;7.43;6.10;;;;;;;4.85;100.00;102413.03;5032383;28;20030;-66
2023/01/03 00:06:47;;;;;;;9.53;6.77;;;;;;;4.83;100.00;102406.88;5034097;28;20568;-66
2023/01/03 00:09:15;;;;;;;8.80;6.15;;;;;;;4.82;100.00;102407.66;5008047;28;20497;-66
2023/01/03 00:14:29;;;;;;;10.93;7.05;;;;;;;4.78;100.00;102398.81;5012970;28;20068;-66
2023/01/03 00:16:57;;;;;;;15.43;6.47;;;;;;;4.74;100.00;102399.31;5029308;28;20432;-66
2023/01/03 00:19:25;;;;;;;10.70;7.03;;;;;;;4.66;100.00;102401.25;5013865;28;20100;-66
2023/01/03 00:21:51;;;;;;;11.63;6.63;;;;;;;4.61;100.00;102397.41;5026801;28;20572;-66
2023/01/03 00:24:16;;;;;;;8.50;6.87;;;;;;;4.57;100.00;102403.97;5013457;28;20026;-66
2023/01/03 00:26:42;;;;;;;8.50;7.53;;;;;;;4.52;100.00;102403.59;5007918;28;20104;-66
2023/01/03 00:29:08;;;;;;;9.53;6.43;;;;;;;4.48;100.00;102400.66;5021973;28;20021;-66
2023/01/03 00:31:35;;;;;;;12.93;6.53;;;;;;;4.44;100.00;102399.53;5029618;28;20115;-66
2023/01/03 00:34:00;;;;;;;11.33;7.83;;;;;;;4.39;100.00;102405.94;5009703;28;20037;-66
2023/01/03 00:36:25;;;;;;;8.00;6.40;;;;;;;4.33;100.00;102409.78;5007604;28;20060;-66
2023/01/03 00:38:51;;;;;;;12.23;7.00;;;;;;;4.31;100.00;102406.22;5007585;28;20493;-66
2023/01/03 00:41:18;;;;;;;10.70;7.37;;;;;;;4.26;100.00;102410.06;5006824;28;20049;-66
2023/01/03 00:43:44;;;;;;;10.83;7.17;;;;;;;4.24;100.00;102416.72;5012186;28;20025;-66
2023/01/03 00:46:11;;;;;;;9.17;7.30;;;;;;;4.22;100.00;102417.38;5034300;28;20104;-66
2023/01/03 00:48:38;;;;;;;8.17;6.97;;;;;;;4.18;100.00;102421.34;5026643;28;20454;-67
2023/01/03 00:51:08;;;;;;;8.73;7.33;;;;;;;4.12;100.00;102416.59;5026732;28;20044;-67
2023/01/03 00:53:34;;;;;;;15.97;7.47;;;;;;;4.08;100.00;102422.25;5025908;28;20026;-66
2023/01/03 00:56:11;;;;;;;12.83;8.70;;;;;;;4.03;100.00;102421.84;5027010;28;20533;-66
2023/01/03 00:58:37;;;;;;;13.50;7.97;;;;;;;3.97;100.00;102419.66;5026284;28;20033;-67
2023/01/03 01:01:13;;;;;;;20.70;8.77;;;;;;;3.97;100.00;102423.91;5025746;28;20029;-67
2023/01/03 01:03:41;;;;;;;10.27;8.37;;;;;;;3.94;100.00;102426.22;5026283;28;20025;-67
2023/01/03 01:06:16;;;;;;;12.77;8.40;;;;;;;3.92;100.00;102430.31;5028848;28;20046;-66
2023/01/03 01:08:42;;;;;;;9.40;8.20;;;;;;;3.87;100.00;102429.03;5029912;28;20102;-66
2023/01/03 01:11:08;;;;;;;11.13;8.53;;;;;;;3.84;100.00;102435.69;5028496;28;20582;-67
2023/01/03 01:13:34;;;;;;;13.97;8.47;;;;;;;3.79;100.00;102436.97;5030287;28;20040;-66
2023/01/03 01:16:02;;;;;;;11.93;8.40;;;;;;;3.72;100.00;102432.09;5031361;28;20025;-66
2023/01/03 01:18:28;;;;;;;13.90;8.77;;;;;;;3.69;100.00;102434.34;5038970;28;20033;-66
2023/01/03 01:20:53;;;;;;;13.80;8.37;;;;;;;3.64;100.00;102436.53;5029608;28;20470;-66
2023/01/03 01:23:19;;;;;;;13.30;8.30;;;;;;;3.62;100.00;102440.63;5029611;28;20032;-66
2023/01/03 01:25:44;;;;;;;11.73;8.13;;;;;;;3.57;100.00;102442.81;5029521;28;20044;-66
2023/01/03 01:28:09;;;;;;;11.93;8.17;;;;;;;3.55;100.00;102449.47;5029507;28;20506;-66
2023/01/03 01:30:36;;;;;;;12.37;8.87;;;;;;;3.52;100.00;102456.00;5017743;28;20088;-66
2023/01/03 01:33:02;;;;;;;10.07;8.80;;;;;;;3.50;100.00;102457.53;5011724;28;20232;-66
2023/01/03 01:35:27;;;;;;;18.33;9.87;;;;;;;3.47;100.00;102461.59;5012051;28;20036;-66
2023/01/03 01:37:52;;;;;;;12.90;9.97;;;;;;;3.48;100.00;102462.50;5011255;28;20022;-66
2023/01/03 01:40:18;;;;;;;14.07;9.93;;;;;;;3.46;100.00;102456.34;5023996;28;20061;-66
2023/01/03 01:45:27;;;;;;;13.13;9.90;;;;;;;3.38;100.00;102457.34;5013255;28;20569;-66
2023/01/03 01:47:56;;;;;;;12.93;10.33;;;;;;;3.38;100.00;102459.91;5030024;28;20100;-66
2023/01/03 01:50:34;;;;;;;16.77;10.87;;;;;;;3.33;100.00;102468.09;5029556;28;20111;-66
2023/01/03 01:53:09;;;;;;;14.60;10.47;;;;;;;3.33;100.00;102474.88;5029112;28;20493;-66
2023/01/03 01:55:39;;;;;;;15.03;10.63;;;;;;;3.34;100.00;102476.69;5029067;28;20179;-66
2023/01/03 01:58:06;;;;;;;16.63;10.33;;;;;;;3.32;100.00;102478.22;5016003;28;20034;-66
2023/01/03 02:00:32;;;;;;;14.33;10.23;;;;;;;3.27;100.00;102484.59;5009738;28;20025;-66
2023/01/03 02:02:58;;;;;;;17.27;11.10;;;;;;;3.28;100.00;102484.72;5009649;28;20572;-66
2023/01/03 02:05:25;;;;;;;16.00;11.10;;;;;;;3.27;100.00;102485.50;5017704;28;20067;-66
2023/01/03 02:07:52;;;;;;;15.53;10.43;;;;;;;3.28;100.00;102491.50;5028941;28;20445;-66
2023/01/03 02:10:31;;;;;;;17.67;10.73;;;;;;;3.26;100.00;102483.69;5029129;28;20056;-66
2023/01/03 02:13:22;;;;;;;17.37;10.83;;;;;;;3.24;100.00;102482.66;5028669;28;20083;-66
2023/01/03 02:16:19;;;;;;;12.55;10.02;;;;;;;3.20;100.00;102478.03;5031872;28;20025;-66
2023/01/03 02:18:53;;;;;;;12.17;9.60;;;;;;;3.18;100.00;102475.34;5020519;28;20029;-66
2023/01/03 02:22:13;;;;;;;13.23;9.90;;;;;;;3.12;100.00;102477.34;5027581;28;20072;-66
2023/01/03 02:24:57;;;;;;;11.17;9.70;;;;;;;3.08;100.00;102486.44;4947576;29;20093;-67
2023/01/03 02:27:42;;;;;;;16.40;9.73;;;;;;;3.06;100.00;102487.94;5028602;28;20048;-66
2023/01/03 02:30:26;;;;;;;12.73;10.83;;;;;;;3.04;100.00;102479.22;5023407;28;20025;-66
2023/01/03 02:33:03;;;;;;;12.37;9.43;;;;;;;3.01;100.00;102486.63;5028786;28;20036;-66
2023/01/03 02:35:53;;;;;;;14.80;9.90;;;;;;;3.00;100.00;102495.97;5017423;28;20092;-66
2023/01/03 02:38:48;;;;;;;12.57;10.00;;;;;;;2.96;100.00;102483.69;5009519;28;20030;-66
2023/01/03 02:41:27;;;;;;;15.67;10.77;;;;;;;2.87;100.00;102486.31;5029034;28;20025;-67
2023/01/03 02:44:03;;;;;;;13.63;10.57;;;;;;;2.86;100.00;102486.19;5008774;28;20155;-66
2023/01/03 02:46:48;;;;;;;13.27;10.20;;;;;;;2.83;100.00;102478.19;5013114;28;20117;-66
2023/01/03 02:49:25;;;;;;;13.43;10.10;;;;;;;2.80;100.00;102485.63;5015291;28;20406;-66
2023/01/03 02:52:00;;;;;;;12.20;10.20;;;;;;;2.79;100.00;102477.03;5028512;28;20077;-66
2023/01/03 02:54:40;;;;;;;16.87;10.13;;;;;;;2.76;100.00;102474.19;5028829;28;20036;-66
2023/01/03 02:57:14;;;;;;;13.00;10.63;;;;;;;2.76;100.00;102474.19;5028682;28;20040;-66
2023/01/03 02:59:45;;;;;;;12.63;10.53;;;;;;;2.74;100.00;102486.84;5028058;28;20040;-66
2023/01/03 03:02:13;;;;;;;18.13;11.32;;;;;;;2.72;100.00;102477.22;5008896;28;20049;-66
2023/01/03 03:04:41;;;;;;;17.03;11.60;;;;;;;2.71;100.00;102485.69;5008458;28;20080;-66
2023/01/03 03:07:14;;;;;;;15.60;11.33;;;;;;;2.68;100.00;102480.28;5021806;28;20539;-66
2023/01/03 03:15:14;;;;;;;16.70;11.47;;;;;;;2.71;100.00;102480.56;5018758;28;20702;-66
2023/01/03 03:17:41;;;;;;;16.20;10.90;;;;;;;2.69;100.00;102487.19;5030533;28;20033;-66
2023/01/03 03:25:51;;;;;;;14.17;10.50;;;;;;;2.67;100.00;102486.16;5015216;28;20134;-66
2023/01/03 03:28:35;;;;;;;15.83;10.80;;;;;;;2.67;100.00;102483.59;5027400;28;20109;-66
2023/01/03 03:31:11;;;;;;;15.27;10.60;;;;;;;2.68;100.00;102482.84;5027361;28;20018;-66
2023/01/03 03:33:50;;;;;;;15.43;11.60;;;;;;;2.65;100.00;102475.78;5026277;28;20120;-66
2023/01/03 03:36:25;;;;;;;16.30;12.10;;;;;;;2.64;100.00;102474.88;5015224;28;20025;-66
2023/01/03 03:38:50;;;;;;;16.13;11.63;;;;;;;2.67;100.00;102478.47;5014851;28;20044;-66
2023/01/03 03:47:26;;;;;;;15.13;11.07;;;;;;;2.62;100.00;102480.63;5018075;28;20117;-66
2023/01/03 03:49:54;;;;;;;15.60;11.23;;;;;;;2.61;100.00;102479.72;5027195;28;20029;-66
2023/01/03 03:52:26;;;;;;;14.10;10.63;;;;;;;2.61;100.00;102479.72;5026255;28;20091;-66
2023/01/03 03:54:57;;;;;;;;;;;;;;;2.59;100.00;102480.34;5026900;28;20025;-66
2023/01/03 03:57:28;;;;;;;15.47;11.30;;;;;;;2.57;100.00;102481.88;5013898;28;20000;-66
2023/01/03 04:00:01;;;;;;;12.20;10.43;;;;;;;2.55;100.00;102474.06;5007440;28;20017;-66
2023/01/03 04:02:29;;;;;;;15.50;12.00;;;;;;;2.54;100.00;102477.34;5020272;28;20033;-66
2023/01/03 04:04:59;;;;;;;15.20;11.83;;;;;;;2.51;100.00;102477.09;5007934;28;20393;-66
2023/01/03 04:07:25;;;;;;;15.70;11.83;;;;;;;2.52;100.00;102489.09;5008389;28;20021;-66
2023/01/03 04:09:50;;;;;;;17.20;13.23;;;;;;;2.51;100.00;102483.13;5007804;28;20368;-66
2023/01/03 04:12:16;;;;;;;14.87;12.37;;;;;;;2.51;100.00;102489.88;5007111;28;20075;-66
2023/01/03 04:14:41;;;;;;;15.53;12.37;;;;;;;2.51;100.00;102492.44;5007521;28;20509;-66
2023/01/03 04:17:06;;;;;;;17.47;12.03;;;;;;;2.49;100.00;102488.84;5027385;28;20481;-66
2023/01/03 04:19:31;;;;;;;15.73;12.17;;;;;;;2.50;100.00;102491.53;5022613;28;20033;-65
2023/01/03 04:21:57;;;;;;;18.90;13.10;;;;;;;2.49;100.00;102478.59;5007156;28;20104;-65
2023/01/03 04:24:22;;;;;;;14.27;12.13;;;;;;;2.47;100.00;102473.34;5007354;28;20029;-66
2023/01/03 04:26:48;;;;;;;17.40;12.67;;;;;;;2.47;100.00;102478.47;5007806;28;20064;-65
2023/01/03 04:29:13;;;;;;;19.57;13.53;;;;;;;2.46;100.00;102475.78;5022146;28;20683;-65
2023/01/03 04:31:38;;;;;;;18.67;13.20;;;;;;;2.48;100.00;102481.94;5017238;28;20103;-65
2023/01/03 04:34:03;;;;;;;17.57;13.57;;;;;;;2.47;100.00;102480.13;5019426;28;20025;-65
2023/01/03 04:36:29;;;;;;;19.67;14.07;;;;;;;2.48;100.00;102476.81;5014887;28;20440;-65
2023/01/03 04:38:54;;;;;;;18.47;14.20;;;;;;;2.48;100.00;102472.56;5012159;28;20036;-65
2023/01/03 04:41:19;;;;;;;20.97;13.60;;;;;;;2.48;100.00;102481.94;5012628;28;20081;-66
2023/01/03 04:44:03;;;;;;;15.77;13.50;;;;;;;2.48;100.00;102481.94;5025847;28;20320;-65
2023/01/03 04:46:34;;;;;;;15.13;13.33;;;;;;;2.48;100.00;102487.06;5023029;28;21282;-65
2023/01/03 04:49:00;;;;;;;;;;;;;;;2.46;100.00;102486.91;5016681;28;20061;-65
2023/01/03 04:51:26;;;;;;;24.83;14.47;;;;;;;2.46;100.00;102488.56;4974149;28;1038337;-65
2023/01/03 04:53:52;;;;;;;19.40;15.03;;;;;;;2.47;100.00;102490.34;5017128;28;20183;-65
2023/01/03 04:56:23;;;;;;;20.20;14.67;;;;;;;2.48;100.00;102484.50;5023640;28;20469;-65
2023/01/03 04:58:48;;;;;;;19.67;14.50;;;;;;;2.50;100.00;102488.09;5007962;28;20034;-65
2023/01/03 05:01:13;;;;;;;20.70;14.60;;;;;;;2.49;100.00;102484.63;5013022;28;20022;-65
2023/01/03 05:03:39;;;;;;;21.17;14.17;;;;;;;2.48;100.00;102485.38;5013209;28;20034;-65
2023/01/03 05:06:07;;;;;;;19.33;14.30;;;;;;;2.49;100.00;102478.59;5008527;28;20389;-65
2023/01/03 05:08:33;;;;;;;19.90;14.67;;;;;;;2.46;100.00;102483.44;5006301;28;20474;-65
2023/01/03 05:10:59;;;;;;;20.97;14.87;;;;;;;2.48;100.00;102484.50;5008391;28;20022;-65
2023/01/03 05:13:24;;;;;;;19.13;13.70;;;;;;;2.48;100.00;102471.69;5007432;28;20026;-65
2023/01/03 05:15:49;;;;;;;24.00;15.37;;;;;;;2.47;100.00;102469.88;5014758;28;20021;-64
2023/01/03 05:18:15;;;;;;;20.63;14.40;;;;;;;2.45;100.00;102463.72;5034382;28;20041;-64
2023/01/03 05:26:14;;;;;;;18.90;13.53;;;;;;;2.49;100.00;102478.59;5008273;28;20057;-64
2023/01/03 05:28:42;;;;;;;17.17;13.50;;;;;;;2.50;100.00;102473.63;5020459;28;20729;-64
2023/01/03 05:31:07;;;;;;;15.63;12.17;;;;;;;2.49;100.00;102460.69;5026822;28;20351;-64
2023/01/03 05:33:33;;;;;;;16.87;13.17;;;;;;;2.47;100.00;102473.34;5023374;28;20474;-64
2023/01/03 05:35:58;;;;;;;17.87;13.00;;;;;;;2.46;100.00;102471.56;5007372;28;20101;-64
2023/01/03 05:38:23;;;;;;;19.40;12.83;;;;;;;2.46;100.00;102469.00;5009256;28;20029;-65
2023/01/03 05:40:50;;;;;;;20.10;14.00;;;;;;;2.46;100.00;102473.22;5025960;28;20040;-65
2023/01/03 05:43:15;;;;;;;17.40;12.83;;;;;;;2.46;100.00;102471.56;5026067;28;20024;-65
2023/01/03 05:45:40;;;;;;;17.70;11.90;;;;;;;2.46;100.00;102463.88;5025199;28;20021;-65
2023/01/03 05:48:07;;;;;;;20.87;12.63;;;;;;;2.45;100.00;102466.28;5024323;28;20037;-64
2023/01/03 05:50:33;;;;;;;17.03;12.60;;;;;;;2.44;100.00;102449.13;5024521;28;20075;-65
2023/01/03 05:52:59;;;;;;;15.87;11.53;;;;;;;2.42;100.00;102453.19;5023528;28;20586;-65
2023/01/03 05:55:24;;;;;;;16.43;11.63;;;;;;;2.41;100.00;102460.00;5027179;28;20017;-65
2023/01/03 05:57:51;;;;;;;13.97;12.50;;;;;;;2.41;100.00;102454.88;5023936;28;20061;-64
2023/01/03 06:00:16;;;;;;;16.80;11.87;;;;;;;2.43;100.00;102462.69;5016663;28;20084;-64
2023/01/03 06:02:42;;;;;;;17.03;12.20;;;;;;;2.37;100.00;102456.25;5011122;28;20038;-64
2023/01/03 06:05:08;;;;;;;18.73;12.70;;;;;;;2.36;100.00;102457.00;5011946;28;20476;-65
2023/01/03 06:07:35;;;;;;;21.90;12.63;;;;;;;2.37;100.00;102458.81;5011663;28;20033;-65
2023/01/03 06:10:00;;;;;;;16.73;12.87;;;;;;;2.38;100.00;102457.16;5011113;28;20465;-65
2023/01/03 06:12:26;;;;;;;20.60;11.77;;;;;;;2.37;100.00;102443.47;5019926;28;20056;-65
2023/01/03 06:14:51;;;;;;;16.70;12.47;;;;;;;2.40;100.00;102446.31;5015381;28;20591;-64
2023/01/03 06:20:00;;;;;;;15.43;12.70;;;;;;;2.46;100.00;102443.41;5013779;28;20040;-65
2023/01/03 06:22:26;;;;;;;16.87;13.23;;;;;;;2.51;100.00;102443.81;5013699;28;20393;-65
2023/01/03 06:24:51;;;;;;;20.43;13.20;;;;;;;2.55;100.00;102447.56;5012363;28;20461;-65
2023/01/03 06:27:16;;;;;;;20.80;13.77;;;;;;;2.57;100.00;102446.94;5012641;28;20030;-65
2023/01/03 06:29:41;;;;;;;18.63;12.20;;;;;;;2.60;100.00;102444.66;5023155;28;20029;-64
2023/01/03 06:32:07;;;;;;;22.23;13.40;;;;;;;2.62;100.00;102438.00;5017296;28;20219;-64
2023/01/03 06:34:33;;;;;;;17.30;12.40;;;;;;;2.65;100.00;102432.25;5017570;28;20025;-65
2023/01/03 06:36:58;;;;;;;19.07;13.37;;;;;;;2.67;100.00;102434.94;5022154;28;20578;-65
2023/01/03 06:39:23;;;;;;;14.40;11.60;;;;;;;2.71;100.00;102435.38;5011606;28;20065;-65
2023/01/03 06:41:48;;;;;;;15.67;11.57;;;;;;;2.72;100.00;102436.25;5021258;28;20429;-65
2023/01/03 06:44:14;;;;;;;18.23;12.10;;;;;;;2.74;100.00;102439.88;5023870;28;20477;-65
2023/01/03 06:54:58;;;;;;;18.23;12.18;;;;;;;2.84;100.00;102437.34;5013041;28;20113;-64
2023/01/03 06:57:23;;;;;;;15.87;11.20;;;;;;;2.87;100.00;102432.53;5017183;28;20545;-64
2023/01/03 06:59:48;;;;;;;15.40;11.80;;;;;;;2.88;100.00;102424.06;5025521;28;20494;-64
2023/01/03 07:02:14;;;;;;;17.93;11.80;;;;;;;2.90;100.00;102415.66;5026794;28;20112;-65
2023/01/03 07:04:39;;;;;;;15.97;11.10;;;;;;;2.89;100.00;102396.81;5033919;28;20424;-65
2023/01/03 07:07:04;;;;;;;17.60;11.07;;;;;;;2.92;100.00;102403.84;5033979;28;20034;-64
2023/01/03 07:09:29;;;;;;;18.07;11.80;;;;;;;2.96;100.00;102403.38;5016062;28;20053;-65
2023/01/03 07:11:55;;;;;;;15.03;10.67;;;;;;;3.00;100.00;102413.13;5020286;28;20245;-64
2023/01/03 07:14:20;;;;;;;17.53;11.07;;;;;;;3.02;100.00;102421.84;5010347;28;20496;-65
2023/01/03 07:16:47;;;;;;;14.57;11.40;;;;;;;3.07;100.00;102410.34;5025052;28;20038;-64
2023/01/03 07:19:16;;;;;;;13.43;10.70;;;;;;;3.11;100.00;102427.75;5013595;28;20493;-64
2023/01/03 07:21:42;;;;;;;19.07;10.93;;;;;;;3.16;100.00;102440.09;5018404;28;20149;-64
2023/01/03 07:24:10;;;;;;;16.43;11.40;;;;;;;3.21;100.00;102459.31;5007210;28;20116;-64
2023/01/03 07:26:35;;;;;;;13.53;11.27;;;;;;;3.24;100.00;102450.25;5008401;28;20034;-65
2023/01/03 07:29:03;;;;;;;15.57;10.83;;;;;;;3.28;100.00;102459.09;5014378;28;20075;-65
2023/01/03 07:31:31;;;;;;;14.20;11.13;;;;;;;3.34;100.00;102453.63;5012791;28;20029;-65
2023/01/03 07:33:56;;;;;;;16.77;11.60;;;;;;;3.41;100.00;102452.50;5020475;28;20022;-65
2023/01/03 07:36:21;;;;;;;15.53;11.33;;;;;;;3.49;100.00;102459.19;5018342;28;20033;-65
2023/01/03 07:38:47;;;;;;;16.80;11.77;;;;;;;3.58;100.00;102457.41;5016336;28;20030;-64
2023/01/03 07:41:13;;;;;;;20.40;11.90;;;;;;;3.69;100.00;102449.75;5017324;28;20107;-64
2023/01/03 07:43:42;;;;;;;20.03;12.80;;;;;;;3.79;100.00;102443.75;5014952;28;20458;-64
2023/01/03 07:46:20;;;;;;;17.60;12.80;;;;;;;3.84;100.00;102445.03;5015808;28;20461;-65
2023/01/03 07:48:48;;;;;;;18.80;12.83;;;;;;;3.90;100.00;102447.25;5010263;28;20029;-64
2023/01/03 07:51:15;;;;;;;18.73;13.33;;;;;;;3.91;100.00;102452.50;5016776;28;20480;-65
2023/01/03 07:53:41;;;;;;;17.83;12.47;;;;;;;3.93;100.00;102450.06;5012988;28;20481;-65
2023/01/03 07:56:08;;;;;;;20.30;12.77;;;;;;;3.96;100.00;102466.63;5017186;28;20060;-65
2023/01/03 07:58:34;;;;;;;19.88;13.05;;;;;;;3.98;100.00;102459.03;5012586;28;20494;-65
2023/01/03 08:01:05;;;;;;;19.83;13.60;;;;;;;3.99;100.00;102457.38;5020015;28;20152;-65
2023/01/03 08:03:31;;;;;;;20.63;13.13;;;;;;;3.99;100.00;102463.44;5009818;28;20284;-65
2023/01/03 08:06:00;;;;;;;15.70;12.33;;;;;;;4.00;100.00;102474.56;5033217;28;20033;-65
2023/01/03 08:08:26;;;;;;;20.20;13.53;;;;;;;4.00;100.00;102475.47;5027995;28;20408;-65
2023/01/03 08:13:35;;;;;;;18.20;12.53;;;;;;;3.97;100.00;102477.78;5015535;28;20074;-65
2023/01/03 08:16:00;;;;;;;22.50;14.50;;;;;;;3.96;100.00;102482.00;5020406;28;20029;-65
2023/01/03 08:18:27;;;;;;;19.87;13.47;;;;;;;3.99;100.00;102486.50;5012986;28;20034;-65
2023/01/03 08:20:55;;;;;;;20.37;14.07;;;;;;;4.01;100.00;102484.06;5006404;28;20017;-65
2023/01/03 08:23:21;;;;;;;19.43;13.70;;;;;;;4.03;100.00;102487.69;5012412;28;20079;-65
2023/01/03 08:25:47;;;;;;;24.77;14.47;;;;;;;4.05;100.00;102487.03;5017144;28;20280;-64
2023/01/03 08:28:13;;;;;;;19.70;15.00;;;;;;;4.08;100.00;102494.97;5013385;28;20443;-65
2023/01/03 08:30:46;;;;;;;23.27;14.87;;;;;;;4.12;100.00;102491.00;5009119;28;20032;-65
2023/01/03 08:33:13;;;;;;;19.93;13.47;;;;;;;4.15;100.00;102490.38;5012087;28;20021;-65
2023/01/03 08:35:42;;;;;;;21.17;14.53;;;;;;;4.17;100.00;102487.16;5012110;28;20033;-65
2023/01/03 08:38:14;;;;;;;17.53;14.37;;;;;;;4.22;100.00;102489.22;5009159;28;20022;-65
2023/01/03 08:40:40;;;;;;;20.05;14.63;;;;;;;4.24;100.00;102496.28;5015228;28;20030;-65
2023/01/03 08:43:06;;;;;;;21.63;14.50;;;;;;;4.29;100.00;102500.16;5018628;28;20028;-65
2023/01/03 08:45:32;;;;;;;22.75;14.93;;;;;;;4.31;100.00;102505.41;5024781;28;20034;-65
2023/01/03 08:48:01;;;;;;;22.55;14.23;;;;;;;4.37;100.00;102510.16;5025113;28;20083;-65
2023/01/03 08:50:29;;;;;;;22.52;14.23;;;;;;;4.38;100.00;102512.84;5023289;28;20742;-65
2023/01/03 08:52:54;;;;;;;19.92;13.43;;;;;;;4.43;100.00;102513.22;5015601;28;20064;-65
2023/01/03 08:55:20;;;;;;;19.77;14.13;;;;;;;4.47;100.00;102514.38;5017595;28;20033;-65
2023/01/03 08:57:45;;;;;;;21.63;13.73;;;;;;;4.51;100.00;102519.94;5017885;28;20072;-65
2023/01/03 09:00:11;;;;;;;20.40;13.30;;;;;;;4.54;100.00;102517.59;5023159;28;20443;-65
2023/01/03 09:02:36;;;;;;;18.03;12.87;;;;;;;4.61;100.00;102520.69;5022270;28;20109;-64
2023/01/03 09:05:01;;;;;;;21.98;14.77;;;;;;;4.66;100.00;102521.94;5022730;28;20060;-63
2023/01/03 09:07:27;;;;;;;19.23;14.25;;;;;;;4.70;100.00;102518.88;5016106;28;20096;-64
2023/01/03 09:09:52;;;;;;;21.97;14.13;;;;;;;4.73;100.00;102518.25;5013293;28;20419;-64
2023/01/03 09:12:17;;;;;;;20.87;13.67;;;;;;;4.74;100.00;102520.94;5006750;28;20026;-64
2023/01/03 09:14:42;;;;;;;22.30;13.77;;;;;;;4.75;100.00;102525.28;5018642;28;20144;-64
2023/01/03 09:17:08;;;;;;;21.83;14.07;;;;;;;4.78;100.00;102528.16;5013683;28;20036;-64
2023/01/03 09:19:33;;;;;;;18.85;14.50;;;;;;;4.79;100.00;102531.59;5015261;28;20037;-64
2023/01/03 09:21:58;;;;;;;21.08;14.38;;;;;;;4.84;100.00;102526.84;5013980;28;20029;-64
2023/01/03 09:24:24;;;;;;;20.30;14.35;;;;;;;4.84;100.00;102529.41;5022228;28;20037;-64
2023/01/03 09:26:49;;;;;;;21.92;14.65;;;;;;;4.86;100.00;102527.84;5019850;28;20048;-64
2023/01/03 09:29:14;;;;;;;24.77;15.10;;;;;;;4.89;100.00;102531.56;5024620;28;20484;-64
2023/01/03 09:31:40;;;;;;;21.13;14.65;;;;;;;4.89;100.00;102531.56;5020843;28;20021;-64
2023/01/03 09:34:05;;;;;;;19.80;14.73;;;;;;;4.93;100.00;102531.06;5023985;28;20025;-64
2023/01/03 09:36:31;;;;;;;21.92;14.93;;;;;;;4.95;100.00;102528.63;5021995;28;20021;-64
2023/01/03 09:38:57;;;;;;;19.95;13.88;;;;;;;5.00;100.00;102526.44;5020447;28;20112;-64
2023/01/03 09:41:25;;;;;;;17.95;12.45;;;;;;;5.00;100.00;102527.31;5029644;28;20100;-64
2023/01/03 09:43:56;;;;;;;19.90;14.00;;;;;;;5.03;100.00;102527.59;5022975;28;20167;-64
2023/01/03 09:46:23;;;;;;;17.55;13.25;;;;;;;5.07;100.00;102525.25;5016246;28;20021;-64
2023/01/03 09:48:49;;;;;;;23.10;14.45;;;;;;;5.08;100.00;102527.03;5015960;28;20474;-64
2023/01/03 10:06:04;;;;;;;18.13;12.07;;;;;;;5.28;100.00;102516.72;5016490;28;20107;-64
2023/01/03 10:08:51;;;;;;;16.67;11.82;;;;;;;5.32;100.00;102522.13;5022232;28;20029;-65
2023/01/03 10:11:31;;;;;;;17.63;11.93;;;;;;;5.34;100.00;102518.91;5021046;28;20025;-64
2023/01/03 10:14:08;;;;;;;19.42;12.55;;;;;;;5.40;100.00;102518.47;5013627;28;20105;-64
2023/01/03 10:16:46;;;;;;;17.10;12.00;;;;;;;5.43;100.00;102520.41;5016162;28;20072;-64
2023/01/03 10:19:24;;;;;;;19.48;12.13;;;;;;;5.45;100.00;102517.16;5013298;28;20033;-64
2023/01/03 10:22:11;;;;;;;16.85;11.65;;;;;;;5.50;100.00;102521.03;5016616;28;20030;-64
2023/01/03 10:24:45;;;;;;;16.38;11.15;;;;;;;5.55;100.00;102523.06;5016257;28;20025;-64
2023/01/03 10:27:23;;;;;;;15.75;10.80;;;;;;;5.57;100.00;102521.50;5013550;28;20529;-64
2023/01/03 10:29:54;;;;;;;18.88;11.93;;;;;;;5.63;100.00;102532.28;5017577;28;20035;-64
2023/01/03 10:32:22;;;;;;;16.87;11.37;;;;;;;5.66;100.00;102522.25;5019464;28;20033;-64
2023/01/03 10:35:27;;;;;;;15.80;11.35;;;;;;;5.67;100.00;102516.31;5015286;28;20350;-64
2023/01/03 10:37:54;;;;;;;16.58;10.45;;;;;;;5.71;100.00;102518.34;5015513;28;20454;-64
2023/01/03 10:40:30;;;;;;;12.30;10.05;;;;;;;5.75;100.00;102522.97;5012062;28;20542;-65
2023/01/03 10:42:55;;;;;;;14.07;10.70;;;;;;;5.80;100.00;102519.84;5025152;28;20328;-66
2023/01/03 10:45:21;;;;;;;14.60;10.88;;;;;;;5.84;100.00;102512.50;5011412;28;20105;-65
2023/01/03 10:48:00;;;;;;;15.90;10.68;;;;;;;5.89;100.00;102512.84;5013249;28;20514;-65
2023/01/03 10:50:27;;;;;;;14.98;10.88;;;;;;;5.88;100.00;102518.78;5012047;28;20026;-65
2023/01/03 10:53:04;;;;;;;14.50;11.25;;;;;;;5.92;100.00;102505.38;5011987;28;20046;-65
2023/01/03 10:55:33;;;;;;;13.88;10.32;;;;;;;6.03;100.00;102502.75;5013800;28;20494;-65
2023/01/03 10:58:01;;;;;;;14.48;10.15;;;;;;;6.09;100.00;102509.31;5012582;28;20030;-65
2023/01/03 11:00:34;;;;;;;17.17;10.95;;;;;;;6.13;100.00;102502.72;5014917;28;20065;-65
2023/01/03 11:03:09;;;;;;;16.08;10.35;;;;;;;6.15;100.00;102505.41;5018611;28;20029;-65
2023/01/03 11:05:35;;;;;;;17.15;10.23;;;;;;;6.19;100.00;102505.75;5014758;28;20033;-65
2023/01/03 11:08:04;;;;;;;13.18;10.05;;;;;;;6.21;100.00;102504.19;5010204;28;20018;-65
2023/01/03 11:10:38;;;;;;;12.98;10.10;;;;;;;6.28;100.00;102504.66;5012114;28;20454;-65
2023/01/03 11:13:37;;;;;;;14.88;10.07;;;;;;;6.31;100.00;102512.63;5011223;28;20026;-65
2023/01/03 11:16:12;;;;;;;13.73;10.50;;;;;;;6.33;100.00;102511.06;4979093;28;20057;-65
2023/01/03 11:18:40;;;;;;;11.63;8.90;;;;;;;6.33;100.00;102503.34;5016186;28;20501;-65
2023/01/03 11:21:22;;;;;;;13.32;9.27;;;;;;;6.36;100.00;102503.56;5013911;28;20030;-65
2023/01/03 11:24:06;;;;;;;11.27;9.05;;;;;;;6.36;100.00;102503.56;5016152;28;20104;-65
2023/01/03 11:27:00;;;;;;;13.70;9.07;;;;;;;6.36;100.00;102491.59;5018742;28;20457;-65
2023/01/03 11:29:38;;;;;;;13.73;9.55;;;;;;;6.38;100.00;102502.00;5027141;28;20029;-65
2023/01/03 11:32:27;;;;;;;19.25;8.80;;;;;;;6.38;100.00;102496.88;5026776;28;20017;-65
2023/01/03 11:35:11;;;;;;;10.45;8.48;;;;;;;6.36;100.00;102489.03;5026518;28;20021;-65
2023/01/03 11:38:13;;;;;;;11.60;9.02;;;;;;;6.38;100.00;102490.81;5026424;28;20113;-65
2023/01/03 11:40:58;;;;;;;12.10;8.57;;;;;;;6.37;100.00;102489.91;5023772;28;20053;-65
2023/01/03 11:43:44;;;;;;;12.02;8.30;;;;;;;6.39;100.00;102496.06;5024942;28;20036;-66
2023/01/03 11:46:28;;;;;;;13.55;8.15;;;;;;;6.39;100.00;102493.50;5027037;28;20132;-66
2023/01/03 11:49:15;;;;;;;13.13;9.00;;;;;;;6.38;100.00;102491.72;5029033;28;20103;-66
2023/01/03 11:52:14;;;;;;;14.30;8.77;;;;;;;6.37;100.00;102489.91;5025468;28;20099;-66
2023/01/03 11:54:42;;;;;;;13.88;9.02;;;;;;;6.36;100.00;102489.03;5024933;28;20033;-67
2023/01/03 11:57:36;;;;;;;10.30;8.20;;;;;;;6.36;100.00;102485.53;5016831;28;20521;-66
2023/01/03 12:00:28;;;;;;;13.23;8.77;;;;;;;6.34;100.00;102484.53;5006738;28;20087;-67
2023/01/03 12:03:05;;;;;;;10.25;8.07;;;;;;;6.35;100.00;102476.03;5005838;28;20053;-65
2023/01/03 12:05:47;;;;;;;12.02;8.18;;;;;;;6.35;100.00;102473.47;5020775;28;20593;-65
2023/01/03 12:08:42;;;;;;;14.13;9.00;;;;;;;6.33;100.00;102478.47;5035946;28;20029;-65
2023/01/03 12:11:44;;;;;;;12.30;8.90;;;;;;;6.35;100.00;102470.88;5027099;28;20018;-66
2023/01/03 12:14:09;;;;;;;15.55;9.35;;;;;;;6.35;100.00;102465.75;5021851;28;20036;-65
2023/01/03 12:16:43;;;;;;;11.60;8.70;;;;;;;6.39;100.00;102460.00;5008784;28;20030;-66
2023/01/03 12:19:36;;;;;;;9.80;7.78;;;;;;;6.43;100.00;102449.16;5013403;28;20060;-65
2023/01/03 12:22:15;;;;;;;11.27;8.02;;;;;;;6.44;100.00;102445.81;5010874;28;20492;-65
2023/01/03 12:25:05;;;;;;;9.80;8.10;;;;;;;6.49;100.00;102444.47;5024033;28;20034;-66